sensor_id;sensor_type;location;lat;lon;timestamp;P1;durP1;ratioP1;P2;durP2;ratioP2
7021;SDS011;3552;42.664;23.406;2022-08-19T00:01:34;7.10;;;6.10;;
7021;SDS011;3552;42.664;23.406;2022-08-19T00:04:05;8.80;;;6.57;;
7021;SDS011;3552;42.664;23.406;2022-08-19T00:06:35;8.17;;;5.77;;
7021;SDS011;3552;42.664;23.406;2022-08-19T00:09:06;8.83;;;6.60;;
7021;SDS011;3552;42.664;23.406;2022-08-19T00:11:34;9.40;;;6.07;;
7021;SDS011;3552;42.664;23.406;2022-08-19T00:14:03;10.17;;;5.87;;
7021;SDS011;3552;42.664;23.406;2022-08-19T00:16:35;10.43;;;5.37;;
7021;SDS011;3552;42.664;23.406;2022-08-19T00:19:03;6.47;;;5.50;;
7021;SDS011;3552;42.664;23.406;2022-08-19T00:21:31;9.30;;;5.60;;
7021;SDS011;3552;42.664;23.406;2022-08-19T00:24:05;8.63;;;6.10;;
7021;SDS011;3552;42.664;23.406;2022-08-19T00:26:33;6.83;;;5.90;;
7021;SDS011;3552;42.664;23.406;2022-08-19T00:29:00;7.97;;;5.27;;
7021;SDS011;3552;42.664;23.406;2022-08-19T00:31:29;7.83;;;5.33;;
7021;SDS011;3552;42.664;23.406;2022-08-19T00:33:56;8.60;;;5.33;;
7021;SDS011;3552;42.664;23.406;2022-08-19T00:36:23;7.03;;;5.33;;
7021;SDS011;3552;42.664;23.406;2022-08-19T00:38:50;6.53;;;5.93;;
7021;SDS011;3552;42.664;23.406;2022-08-19T00:41:20;7.00;;;5.47;;
7021;SDS011;3552;42.664;23.406;2022-08-19T00:43:56;15.83;;;6.57;;
7021;SDS011;3552;42.664;23.406;2022-08-19T00:46:25;6.27;;;5.67;;
7021;SDS011;3552;42.664;23.406;2022-08-19T00:48:52;10.43;;;6.73;;
7021;SDS011;3552;42.664;23.406;2022-08-19T00:51:20;7.53;;;5.77;;
7021;SDS011;3552;42.664;23.406;2022-08-19T00:53:48;7.23;;;5.80;;
7021;SDS011;3552;42.664;23.406;2022-08-19T00:56:16;10.60;;;6.43;;
7021;SDS011;3552;42.664;23.406;2022-08-19T00:58:45;9.83;;;6.47;;
7021;SDS011;3552;42.664;23.406;2022-08-19T01:01:12;9.03;;;5.97;;
7021;SDS011;3552;42.664;23.406;2022-08-19T01:03:40;9.67;;;5.97;;
7021;SDS011;3552;42.664;23.406;2022-08-19T01:06:07;8.20;;;5.80;;
7021;SDS011;3552;42.664;23.406;2022-08-19T01:08:35;8.23;;;5.93;;
7021;SDS011;3552;42.664;23.406;2022-08-19T01:11:02;9.57;;;6.00;;
7021;SDS011;3552;42.664;23.406;2022-08-19T01:13:30;7.40;;;6.60;;
7021;SDS011;3552;42.664;23.406;2022-08-19T01:16:03;8.50;;;6.57;;
7021;SDS011;3552;42.664;23.406;2022-08-19T01:18:35;14.83;;;6.67;;
7021;SDS011;3552;42.664;23.406;2022-08-19T01:21:08;11.60;;;7.23;;
7021;SDS011;3552;42.664;23.406;2022-08-19T01:23:42;9.13;;;7.30;;
7021;SDS011;3552;42.664;23.406;2022-08-19T01:26:11;8.43;;;7.33;;
7021;SDS011;3552;42.664;23.406;2022-08-19T01:28:40;8.13;;;7.33;;
7021;SDS011;3552;42.664;23.406;2022-08-19T01:31:10;10.50;;;7.30;;
7021;SDS011;3552;42.664;23.406;2022-08-19T01:33:39;12.23;;;7.23;;
7021;SDS011;3552;42.664;23.406;2022-08-19T01:36:08;12.97;;;7.70;;
7021;SDS011;3552;42.664;23.406;2022-08-19T01:38:38;8.90;;;6.67;;
7021;SDS011;3552;42.664;23.406;2022-08-19T01:41:09;7.77;;;7.00;;
7021;SDS011;3552;42.664;23.406;2022-08-19T01:43:36;11.37;;;6.83;;
7021;SDS011;3552;42.664;23.406;2022-08-19T01:46:04;9.93;;;7.37;;
7021;SDS011;3552;42.664;23.406;2022-08-19T01:48:35;10.77;;;7.27;;
7021;SDS011;3552;42.664;23.406;2022-08-19T01:51:04;7.40;;;6.57;;
7021;SDS011;3552;42.664;23.406;2022-08-19T01:53:33;11.07;;;7.67;;
7021;SDS011;3552;42.664;23.406;2022-08-19T01:56:01;8.50;;;6.63;;
7021;SDS011;3552;42.664;23.406;2022-08-19T01:58:32;11.40;;;6.90;;
7021;SDS011;3552;42.664;23.406;2022-08-19T02:01:02;7.90;;;6.80;;
7021;SDS011;3552;42.664;23.406;2022-08-19T02:03:30;7.53;;;6.70;;
7021;SDS011;3552;42.664;23.406;2022-08-19T02:06:00;10.33;;;7.57;;
7021;SDS011;3552;42.664;23.406;2022-08-19T02:08:30;11.93;;;7.07;;
7021;SDS011;3552;42.664;23.406;2022-08-19T02:11:01;10.00;;;6.93;;
7021;SDS011;3552;42.664;23.406;2022-08-19T02:13:29;8.53;;;7.10;;
7021;SDS011;3552;42.664;23.406;2022-08-19T02:15:57;8.30;;;6.83;;
7021;SDS011;3552;42.664;23.406;2022-08-19T02:18:25;10.83;;;7.17;;
7021;SDS011;3552;42.664;23.406;2022-08-19T02:20:53;9.27;;;6.83;;
7021;SDS011;3552;42.664;23.406;2022-08-19T02:23:20;11.00;;;6.77;;
7021;SDS011;3552;42.664;23.406;2022-08-19T02:25:48;12.37;;;7.77;;
7021;SDS011;3552;42.664;23.406;2022-08-19T02:28:17;12.33;;;7.43;;
7021;SDS011;3552;42.664;23.406;2022-08-19T02:30:47;9.03;;;6.90;;
7021;SDS011;3552;42.664;23.406;2022-08-19T02:33:14;9.30;;;6.70;;
7021;SDS011;3552;42.664;23.406;2022-08-19T02:35:41;8.00;;;7.20;;
7021;SDS011;3552;42.664;23.406;2022-08-19T02:38:10;13.33;;;7.43;;
7021;SDS011;3552;42.664;23.406;2022-08-19T02:40:53;7.83;;;7.03;;
7021;SDS011;3552;42.664;23.406;2022-08-19T02:43:22;10.80;;;7.20;;
7021;SDS011;3552;42.664;23.406;2022-08-19T02:45:53;8.57;;;7.07;;
7021;SDS011;3552;42.664;23.406;2022-08-19T02:48:21;12.13;;;7.80;;
7021;SDS011;3552;42.664;23.406;2022-08-19T02:50:52;14.97;;;7.77;;
7021;SDS011;3552;42.664;23.406;2022-08-19T02:53:22;9.07;;;7.13;;
7021;SDS011;3552;42.664;23.406;2022-08-19T02:55:50;12.67;;;7.13;;
7021;SDS011;3552;42.664;23.406;2022-08-19T02:58:18;12.53;;;7.03;;
7021;SDS011;3552;42.664;23.406;2022-08-19T03:00:48;11.33;;;7.17;;
7021;SDS011;3552;42.664;23.406;2022-08-19T03:03:19;10.93;;;8.00;;
7021;SDS011;3552;42.664;23.406;2022-08-19T03:05:48;9.83;;;7.23;;
7021;SDS011;3552;42.664;23.406;2022-08-19T03:08:16;7.77;;;6.97;;
7021;SDS011;3552;42.664;23.406;2022-08-19T03:10:44;11.07;;;6.87;;
7021;SDS011;3552;42.664;23.406;2022-08-19T03:13:14;9.90;;;7.20;;
7021;SDS011;3552;42.664;23.406;2022-08-19T03:15:45;7.57;;;6.50;;
7021;SDS011;3552;42.664;23.406;2022-08-19T03:18:13;7.93;;;6.47;;
7021;SDS011;3552;42.664;23.406;2022-08-19T03:20:43;7.53;;;6.73;;
7021;SDS011;3552;42.664;23.406;2022-08-19T03:23:12;18.90;;;7.77;;
7021;SDS011;3552;42.664;23.406;2022-08-19T03:25:41;17.00;;;7.70;;
7021;SDS011;3552;42.664;23.406;2022-08-19T03:28:10;10.77;;;7.13;;
7021;SDS011;3552;42.664;23.406;2022-08-19T03:30:38;12.03;;;7.43;;
7021;SDS011;3552;42.664;23.406;2022-08-19T03:33:05;10.97;;;7.60;;
7021;SDS011;3552;42.664;23.406;2022-08-19T03:35:33;12.73;;;7.93;;
7021;SDS011;3552;42.664;23.406;2022-08-19T03:38:03;11.60;;;7.70;;
7021;SDS011;3552;42.664;23.406;2022-08-19T03:40:31;11.17;;;7.50;;
7021;SDS011;3552;42.664;23.406;2022-08-19T03:43:03;11.93;;;7.97;;
7021;SDS011;3552;42.664;23.406;2022-08-19T03:45:31;18.93;;;8.70;;
7021;SDS011;3552;42.664;23.406;2022-08-19T03:47:59;18.33;;;9.63;;
7021;SDS011;3552;42.664;23.406;2022-08-19T03:50:25;16.13;;;8.80;;
7021;SDS011;3552;42.664;23.406;2022-08-19T03:52:53;10.27;;;8.17;;
7021;SDS011;3552;42.664;23.406;2022-08-19T03:55:23;20.53;;;8.87;;
7021;SDS011;3552;42.664;23.406;2022-08-19T03:57:51;10.47;;;7.90;;
7021;SDS011;3552;42.664;23.406;2022-08-19T04:00:19;13.97;;;8.40;;
7021;SDS011;3552;42.664;23.406;2022-08-19T04:02:46;13.27;;;7.77;;
7021;SDS011;3552;42.664;23.406;2022-08-19T04:05:14;15.23;;;8.33;;
7021;SDS011;3552;42.664;23.406;2022-08-19T04:07:41;17.50;;;8.53;;
7021;SDS011;3552;42.664;23.406;2022-08-19T04:10:09;14.77;;;8.13;;
7021;SDS011;3552;42.664;23.406;2022-08-19T04:12:38;14.40;;;8.00;;
7021;SDS011;3552;42.664;23.406;2022-08-19T04:15:06;21.43;;;8.77;;
7021;SDS011;3552;42.664;23.406;2022-08-19T04:17:36;14.50;;;7.60;;
7021;SDS011;3552;42.664;23.406;2022-08-19T04:20:06;17.37;;;8.00;;
7021;SDS011;3552;42.664;23.406;2022-08-19T04:22:35;12.93;;;8.17;;
7021;SDS011;3552;42.664;23.406;2022-08-19T04:25:02;14.80;;;8.37;;
7021;SDS011;3552;42.664;23.406;2022-08-19T04:27:30;9.73;;;7.50;;
7021;SDS011;3552;42.664;23.406;2022-08-19T04:30:00;15.90;;;8.63;;
7021;SDS011;3552;42.664;23.406;2022-08-19T04:32:27;10.03;;;7.67;;
7021;SDS011;3552;42.664;23.406;2022-08-19T04:34:56;14.97;;;8.10;;
7021;SDS011;3552;42.664;23.406;2022-08-19T04:37:24;14.67;;;8.53;;
7021;SDS011;3552;42.664;23.406;2022-08-19T04:39:51;15.40;;;8.70;;
7021;SDS011;3552;42.664;23.406;2022-08-19T04:42:35;10.60;;;7.97;;
7021;SDS011;3552;42.664;23.406;2022-08-19T04:45:09;22.80;;;9.23;;
7021;SDS011;3552;42.664;23.406;2022-08-19T04:47:38;14.33;;;8.10;;
7021;SDS011;3552;42.664;23.406;2022-08-19T04:50:07;16.47;;;7.97;;
7021;SDS011;3552;42.664;23.406;2022-08-19T04:52:37;17.33;;;8.10;;
7021;SDS011;3552;42.664;23.406;2022-08-19T04:55:07;19.40;;;8.17;;
7021;SDS011;3552;42.664;23.406;2022-08-19T04:57:35;16.17;;;7.90;;
7021;SDS011;3552;42.664;23.406;2022-08-19T05:00:06;11.07;;;7.40;;
7021;SDS011;3552;42.664;23.406;2022-08-19T05:02:36;11.00;;;7.50;;
7021;SDS011;3552;42.664;23.406;2022-08-19T05:05:03;15.57;;;8.13;;
7021;SDS011;3552;42.664;23.406;2022-08-19T05:07:33;16.13;;;8.00;;
7021;SDS011;3552;42.664;23.406;2022-08-19T05:09:59;16.20;;;8.93;;
7021;SDS011;3552;42.664;23.406;2022-08-19T05:12:29;24.30;;;8.77;;
7021;SDS011;3552;42.664;23.406;2022-08-19T05:14:58;33.50;;;10.50;;
7021;SDS011;3552;42.664;23.406;2022-08-19T05:17:28;28.20;;;8.83;;
7021;SDS011;3552;42.664;23.406;2022-08-19T05:19:55;19.37;;;9.10;;
7021;SDS011;3552;42.664;23.406;2022-08-19T05:22:39;26.00;;;8.93;;
7021;SDS011;3552;42.664;23.406;2022-08-19T05:25:08;25.93;;;9.07;;
7021;SDS011;3552;42.664;23.406;2022-08-19T05:27:37;22.83;;;8.87;;
7021;SDS011;3552;42.664;23.406;2022-08-19T05:30:05;29.80;;;8.43;;
7021;SDS011;3552;42.664;23.406;2022-08-19T05:32:35;14.63;;;7.97;;
7021;SDS011;3552;42.664;23.406;2022-08-19T05:35:03;16.00;;;8.53;;
7021;SDS011;3552;42.664;23.406;2022-08-19T05:37:31;18.90;;;8.93;;
7021;SDS011;3552;42.664;23.406;2022-08-19T05:39:58;14.17;;;7.80;;
7021;SDS011;3552;42.664;23.406;2022-08-19T05:42:26;17.80;;;8.17;;
7021;SDS011;3552;42.664;23.406;2022-08-19T05:44:55;16.67;;;8.37;;
7021;SDS011;3552;42.664;23.406;2022-08-19T05:47:24;12.30;;;7.23;;
7021;SDS011;3552;42.664;23.406;2022-08-19T05:49:54;20.87;;;7.87;;
7021;SDS011;3552;42.664;23.406;2022-08-19T05:52:22;19.57;;;8.10;;
7021;SDS011;3552;42.664;23.406;2022-08-19T05:54:50;12.73;;;8.30;;
7021;SDS011;3552;42.664;23.406;2022-08-19T05:57:17;15.40;;;7.93;;
7021;SDS011;3552;42.664;23.406;2022-08-19T05:59:44;13.77;;;7.33;;
7021;SDS011;3552;42.664;23.406;2022-08-19T06:02:16;18.20;;;7.77;;
7021;SDS011;3552;42.664;23.406;2022-08-19T06:04:44;13.53;;;7.40;;
7021;SDS011;3552;42.664;23.406;2022-08-19T06:07:13;17.77;;;8.33;;
7021;SDS011;3552;42.664;23.406;2022-08-19T06:09:46;19.03;;;8.37;;
7021;SDS011;3552;42.664;23.406;2022-08-19T06:12:14;26.93;;;8.67;;
7021;SDS011;3552;42.664;23.406;2022-08-19T06:14:42;22.50;;;7.60;;
7021;SDS011;3552;42.664;23.406;2022-08-19T06:17:10;12.93;;;7.63;;
7021;SDS011;3552;42.664;23.406;2022-08-19T06:19:38;12.77;;;8.07;;
7021;SDS011;3552;42.664;23.406;2022-08-19T06:22:09;18.70;;;7.50;;
7021;SDS011;3552;42.664;23.406;2022-08-19T06:24:39;15.47;;;6.87;;
7021;SDS011;3552;42.664;23.406;2022-08-19T06:27:08;11.87;;;6.63;;
7021;SDS011;3552;42.664;23.406;2022-08-19T06:29:36;9.33;;;6.53;;
7021;SDS011;3552;42.664;23.406;2022-08-19T06:32:04;18.77;;;7.77;;
7021;SDS011;3552;42.664;23.406;2022-08-19T06:34:32;9.63;;;6.80;;
7021;SDS011;3552;42.664;23.406;2022-08-19T06:37:00;13.20;;;7.03;;
7021;SDS011;3552;42.664;23.406;2022-08-19T06:39:29;16.13;;;7.43;;
7021;SDS011;3552;42.664;23.406;2022-08-19T06:42:00;11.10;;;6.73;;
7021;SDS011;3552;42.664;23.406;2022-08-19T06:44:34;18.67;;;7.30;;
7021;SDS011;3552;42.664;23.406;2022-08-19T06:47:04;15.80;;;7.30;;
7021;SDS011;3552;42.664;23.406;2022-08-19T06:49:32;14.87;;;6.90;;
7021;SDS011;3552;42.664;23.406;2022-08-19T06:51:59;17.13;;;6.20;;
7021;SDS011;3552;42.664;23.406;2022-08-19T06:54:27;11.60;;;7.00;;
7021;SDS011;3552;42.664;23.406;2022-08-19T06:56:55;12.37;;;6.67;;
7021;SDS011;3552;42.664;23.406;2022-08-19T06:59:25;12.23;;;6.30;;
7021;SDS011;3552;42.664;23.406;2022-08-19T07:01:55;13.53;;;6.80;;
7021;SDS011;3552;42.664;23.406;2022-08-19T07:04:26;15.27;;;7.07;;
7021;SDS011;3552;42.664;23.406;2022-08-19T07:06:57;18.30;;;6.73;;
7021;SDS011;3552;42.664;23.406;2022-08-19T07:09:25;12.83;;;6.60;;
7021;SDS011;3552;42.664;23.406;2022-08-19T07:11:53;9.90;;;6.50;;
7021;SDS011;3552;42.664;23.406;2022-08-19T07:14:22;12.63;;;6.50;;
7021;SDS011;3552;42.664;23.406;2022-08-19T07:16:53;9.90;;;6.13;;
7021;SDS011;3552;42.664;23.406;2022-08-19T07:19:22;10.20;;;6.47;;
7021;SDS011;3552;42.664;23.406;2022-08-19T07:21:52;8.00;;;6.40;;
7021;SDS011;3552;42.664;23.406;2022-08-19T07:24:21;9.10;;;6.20;;
7021;SDS011;3552;42.664;23.406;2022-08-19T07:26:50;9.27;;;6.33;;
7021;SDS011;3552;42.664;23.406;2022-08-19T07:29:20;15.17;;;6.47;;
7021;SDS011;3552;42.664;23.406;2022-08-19T07:31:48;9.33;;;6.33;;
7021;SDS011;3552;42.664;23.406;2022-08-19T07:34:18;9.43;;;6.00;;
7021;SDS011;3552;42.664;23.406;2022-08-19T07:36:45;13.53;;;6.90;;
7021;SDS011;3552;42.664;23.406;2022-08-19T07:39:13;12.93;;;6.50;;
7021;SDS011;3552;42.664;23.406;2022-08-19T07:41:43;8.60;;;6.40;;
7021;SDS011;3552;42.664;23.406;2022-08-19T07:44:12;9.97;;;6.73;;
7021;SDS011;3552;42.664;23.406;2022-08-19T07:46:42;8.43;;;6.20;;
7021;SDS011;3552;42.664;23.406;2022-08-19T07:49:11;7.17;;;6.30;;
7021;SDS011;3552;42.664;23.406;2022-08-19T07:51:44;9.37;;;6.10;;
7021;SDS011;3552;42.664;23.406;2022-08-19T07:54:12;12.03;;;6.30;;
7021;SDS011;3552;42.664;23.406;2022-08-19T07:56:39;14.10;;;6.53;;
7021;SDS011;3552;42.664;23.406;2022-08-19T07:59:09;13.57;;;6.50;;
7021;SDS011;3552;42.664;23.406;2022-08-19T08:01:37;10.53;;;6.10;;
7021;SDS011;3552;42.664;23.406;2022-08-19T08:04:05;8.13;;;6.27;;
7021;SDS011;3552;42.664;23.406;2022-08-19T08:06:52;10.83;;;6.83;;
7021;SDS011;3552;42.664;23.406;2022-08-19T08:09:39;11.07;;;6.10;;
7021;SDS011;3552;42.664;23.406;2022-08-19T08:12:09;10.23;;;6.10;;
7021;SDS011;3552;42.664;23.406;2022-08-19T08:14:38;9.17;;;5.67;;
7021;SDS011;3552;42.664;23.406;2022-08-19T08:17:07;12.43;;;7.13;;
7021;SDS011;3552;42.664;23.406;2022-08-19T08:19:35;15.20;;;6.20;;
7021;SDS011;3552;42.664;23.406;2022-08-19T08:22:05;8.30;;;6.17;;
7021;SDS011;3552;42.664;23.406;2022-08-19T08:24:33;11.33;;;6.53;;
7021;SDS011;3552;42.664;23.406;2022-08-19T08:27:01;12.77;;;6.10;;
7021;SDS011;3552;42.664;23.406;2022-08-19T08:29:29;14.30;;;6.23;;
7021;SDS011;3552;42.664;23.406;2022-08-19T08:31:58;9.93;;;6.27;;
7021;SDS011;3552;42.664;23.406;2022-08-19T08:34:25;12.60;;;6.80;;
7021;SDS011;3552;42.664;23.406;2022-08-19T08:36:53;11.63;;;5.90;;
7021;SDS011;3552;42.664;23.406;2022-08-19T08:39:22;10.27;;;6.20;;
7021;SDS011;3552;42.664;23.406;2022-08-19T08:41:52;13.13;;;7.10;;
7021;SDS011;3552;42.664;23.406;2022-08-19T08:44:27;7.77;;;6.00;;
7021;SDS011;3552;42.664;23.406;2022-08-19T08:47:09;13.90;;;6.87;;
7021;SDS011;3552;42.664;23.406;2022-08-19T08:49:40;10.97;;;5.90;;
7021;SDS011;3552;42.664;23.406;2022-08-19T08:52:13;20.60;;;6.80;;
7021;SDS011;3552;42.664;23.406;2022-08-19T08:54:47;15.63;;;6.17;;
7021;SDS011;3552;42.664;23.406;2022-08-19T08:57:18;8.70;;;5.40;;
7021;SDS011;3552;42.664;23.406;2022-08-19T08:59:50;12.40;;;5.87;;
7021;SDS011;3552;42.664;23.406;2022-08-19T09:02:20;9.07;;;5.57;;
7021;SDS011;3552;42.664;23.406;2022-08-19T09:04:47;10.40;;;6.03;;
7021;SDS011;3552;42.664;23.406;2022-08-19T09:07:22;15.20;;;6.13;;
7021;SDS011;3552;42.664;23.406;2022-08-19T09:10:02;6.47;;;5.63;;
7021;SDS011;3552;42.664;23.406;2022-08-19T09:12:35;10.30;;;5.90;;
7021;SDS011;3552;42.664;23.406;2022-08-19T09:15:10;9.80;;;5.60;;
7021;SDS011;3552;42.664;23.406;2022-08-19T09:17:40;8.83;;;5.27;;
7021;SDS011;3552;42.664;23.406;2022-08-19T09:20:13;7.87;;;5.27;;
7021;SDS011;3552;42.664;23.406;2022-08-19T09:22:44;9.03;;;5.73;;
7021;SDS011;3552;42.664;23.406;2022-08-19T09:25:16;8.33;;;5.37;;
7021;SDS011;3552;42.664;23.406;2022-08-19T09:27:49;6.17;;;4.73;;
7021;SDS011;3552;42.664;23.406;2022-08-19T09:30:20;7.77;;;4.37;;
7021;SDS011;3552;42.664;23.406;2022-08-19T09:32:50;8.17;;;5.17;;
7021;SDS011;3552;42.664;23.406;2022-08-19T09:35:21;4.90;;;4.40;;
7021;SDS011;3552;42.664;23.406;2022-08-19T09:40:37;16.67;;;11.67;;
7021;SDS011;3552;42.664;23.406;2022-08-19T09:43:04;10.90;;;6.27;;
7021;SDS011;3552;42.664;23.406;2022-08-19T09:45:33;4.97;;;3.97;;
7021;SDS011;3552;42.664;23.406;2022-08-19T09:48:08;4.03;;;3.67;;
7021;SDS011;3552;42.664;23.406;2022-08-19T09:50:37;6.63;;;3.60;;
7021;SDS011;3552;42.664;23.406;2022-08-19T09:53:05;6.93;;;3.93;;
7021;SDS011;3552;42.664;23.406;2022-08-19T09:55:34;6.00;;;3.80;;
7021;SDS011;3552;42.664;23.406;2022-08-19T09:58:01;4.90;;;3.80;;
7021;SDS011;3552;42.664;23.406;2022-08-19T10:00:29;5.03;;;4.07;;
7021;SDS011;3552;42.664;23.406;2022-08-19T10:02:56;6.40;;;4.00;;
7021;SDS011;3552;42.664;23.406;2022-08-19T10:05:25;5.40;;;4.00;;
7021;SDS011;3552;42.664;23.406;2022-08-19T10:08:09;6.97;;;4.30;;
7021;SDS011;3552;42.664;23.406;2022-08-19T10:10:41;7.30;;;3.93;;
7021;SDS011;3552;42.664;23.406;2022-08-19T10:13:09;4.50;;;3.83;;
7021;SDS011;3552;42.664;23.406;2022-08-19T10:15:36;5.53;;;4.10;;
7021;SDS011;3552;42.664;23.406;2022-08-19T10:18:06;5.03;;;3.83;;
7021;SDS011;3552;42.664;23.406;2022-08-19T10:20:35;5.60;;;3.97;;
7021;SDS011;3552;42.664;23.406;2022-08-19T10:23:06;6.53;;;4.03;;
7021;SDS011;3552;42.664;23.406;2022-08-19T10:25:35;6.10;;;4.33;;
7021;SDS011;3552;42.664;23.406;2022-08-19T10:28:05;7.13;;;4.20;;
7021;SDS011;3552;42.664;23.406;2022-08-19T10:30:32;7.03;;;4.63;;
7021;SDS011;3552;42.664;23.406;2022-08-19T10:33:00;6.87;;;4.10;;
7021;SDS011;3552;42.664;23.406;2022-08-19T10:35:27;4.77;;;4.37;;
7021;SDS011;3552;42.664;23.406;2022-08-19T10:37:55;9.13;;;4.57;;
7021;SDS011;3552;42.664;23.406;2022-08-19T10:40:38;5.83;;;4.60;;
7021;SDS011;3552;42.664;23.406;2022-08-19T10:43:08;4.57;;;4.10;;
7021;SDS011;3552;42.664;23.406;2022-08-19T10:45:35;9.40;;;4.50;;
7021;SDS011;3552;42.664;23.406;2022-08-19T10:48:04;6.60;;;4.20;;
7021;SDS011;3552;42.664;23.406;2022-08-19T10:50:31;5.30;;;4.73;;
7021;SDS011;3552;42.664;23.406;2022-08-19T10:53:15;4.37;;;3.83;;
7021;SDS011;3552;42.664;23.406;2022-08-19T10:55:44;5.87;;;4.70;;
7021;SDS011;3552;42.664;23.406;2022-08-19T10:58:30;6.60;;;4.73;;
7021;SDS011;3552;42.664;23.406;2022-08-19T11:00:58;8.93;;;4.63;;
7021;SDS011;3552;42.664;23.406;2022-08-19T11:03:25;7.97;;;4.53;;
7021;SDS011;3552;42.664;23.406;2022-08-19T11:05:57;6.40;;;4.63;;
7021;SDS011;3552;42.664;23.406;2022-08-19T11:08:25;7.17;;;4.37;;
7021;SDS011;3552;42.664;23.406;2022-08-19T11:10:53;9.23;;;4.50;;
7021;SDS011;3552;42.664;23.406;2022-08-19T11:13:21;7.57;;;4.57;;
7021;SDS011;3552;42.664;23.406;2022-08-19T11:15:58;6.13;;;4.63;;
7021;SDS011;3552;42.664;23.406;2022-08-19T11:18:26;9.27;;;5.07;;
7021;SDS011;3552;42.664;23.406;2022-08-19T11:20:53;7.30;;;4.30;;
7021;SDS011;3552;42.664;23.406;2022-08-19T11:23:20;7.07;;;4.80;;
7021;SDS011;3552;42.664;23.406;2022-08-19T11:25:49;7.57;;;5.10;;
7021;SDS011;3552;42.664;23.406;2022-08-19T11:28:16;7.20;;;4.67;;
7021;SDS011;3552;42.664;23.406;2022-08-19T11:30:43;5.97;;;4.37;;
7021;SDS011;3552;42.664;23.406;2022-08-19T11:33:11;7.93;;;4.50;;
7021;SDS011;3552;42.664;23.406;2022-08-19T11:35:40;8.87;;;4.80;;
7021;SDS011;3552;42.664;23.406;2022-08-19T11:38:07;7.73;;;4.63;;
7021;SDS011;3552;42.664;23.406;2022-08-19T11:40:34;7.33;;;4.53;;
7021;SDS011;3552;42.664;23.406;2022-08-19T11:43:01;9.63;;;4.60;;
7021;SDS011;3552;42.664;23.406;2022-08-19T11:45:29;6.90;;;4.67;;
7021;SDS011;3552;42.664;23.406;2022-08-19T11:47:56;6.27;;;4.70;;
7021;SDS011;3552;42.664;23.406;2022-08-19T11:50:25;8.40;;;4.83;;
7021;SDS011;3552;42.664;23.406;2022-08-19T11:52:53;6.43;;;4.90;;
7021;SDS011;3552;42.664;23.406;2022-08-19T11:55:20;6.03;;;4.63;;
7021;SDS011;3552;42.664;23.406;2022-08-19T11:57:48;5.93;;;4.73;;
7021;SDS011;3552;42.664;23.406;2022-08-19T12:00:17;8.20;;;5.00;;
7021;SDS011;3552;42.664;23.406;2022-08-19T12:02:44;6.83;;;4.50;;
7021;SDS011;3552;42.664;23.406;2022-08-19T12:05:11;6.60;;;4.93;;
7021;SDS011;3552;42.664;23.406;2022-08-19T12:07:40;5.37;;;4.87;;
7021;SDS011;3552;42.664;23.406;2022-08-19T12:10:09;7.87;;;4.90;;
7021;SDS011;3552;42.664;23.406;2022-08-19T12:12:37;7.70;;;4.30;;
7021;SDS011;3552;42.664;23.406;2022-08-19T12:15:08;6.07;;;5.43;;
7021;SDS011;3552;42.664;23.406;2022-08-19T12:17:37;7.40;;;5.20;;
7021;SDS011;3552;42.664;23.406;2022-08-19T12:20:05;8.37;;;5.23;;
7021;SDS011;3552;42.664;23.406;2022-08-19T12:22:34;5.07;;;4.53;;
7021;SDS011;3552;42.664;23.406;2022-08-19T12:25:04;10.87;;;4.87;;
7021;SDS011;3552;42.664;23.406;2022-08-19T12:27:32;6.33;;;5.00;;
7021;SDS011;3552;42.664;23.406;2022-08-19T12:30:00;7.60;;;5.27;;
7021;SDS011;3552;42.664;23.406;2022-08-19T12:32:28;5.53;;;5.00;;
7021;SDS011;3552;42.664;23.406;2022-08-19T12:34:56;5.37;;;4.73;;
7021;SDS011;3552;42.664;23.406;2022-08-19T12:37:23;7.93;;;5.13;;
7021;SDS011;3552;42.664;23.406;2022-08-19T12:39:52;6.43;;;5.10;;
7021;SDS011;3552;42.664;23.406;2022-08-19T12:42:20;5.77;;;4.90;;
7021;SDS011;3552;42.664;23.406;2022-08-19T12:44:48;6.13;;;4.70;;
7021;SDS011;3552;42.664;23.406;2022-08-19T12:47:16;8.03;;;5.10;;
7021;SDS011;3552;42.664;23.406;2022-08-19T12:49:44;7.03;;;5.00;;
7021;SDS011;3552;42.664;23.406;2022-08-19T12:52:12;9.77;;;4.80;;
7021;SDS011;3552;42.664;23.406;2022-08-19T12:54:41;7.50;;;4.93;;
7021;SDS011;3552;42.664;23.406;2022-08-19T12:57:09;9.10;;;5.70;;
7021;SDS011;3552;42.664;23.406;2022-08-19T12:59:38;9.37;;;5.00;;
7021;SDS011;3552;42.664;23.406;2022-08-19T13:02:06;8.23;;;5.57;;
7021;SDS011;3552;42.664;23.406;2022-08-19T13:04:34;15.00;;;6.13;;
7021;SDS011;3552;42.664;23.406;2022-08-19T13:07:05;9.53;;;5.37;;
7021;SDS011;3552;42.664;23.406;2022-08-19T13:09:33;6.20;;;5.33;;
7021;SDS011;3552;42.664;23.406;2022-08-19T13:12:02;6.63;;;5.00;;
7021;SDS011;3552;42.664;23.406;2022-08-19T13:14:34;6.53;;;4.73;;
7021;SDS011;3552;42.664;23.406;2022-08-19T13:17:03;8.70;;;5.40;;
7021;SDS011;3552;42.664;23.406;2022-08-19T13:19:30;8.50;;;4.90;;
7021;SDS011;3552;42.664;23.406;2022-08-19T13:21:59;11.87;;;5.03;;
7021;SDS011;3552;42.664;23.406;2022-08-19T13:24:28;10.70;;;5.67;;
7021;SDS011;3552;42.664;23.406;2022-08-19T13:26:55;9.10;;;5.30;;
7021;SDS011;3552;42.664;23.406;2022-08-19T13:29:22;9.50;;;4.87;;
7021;SDS011;3552;42.664;23.406;2022-08-19T13:32:08;6.13;;;5.00;;
7021;SDS011;3552;42.664;23.406;2022-08-19T13:34:53;8.93;;;5.30;;
7021;SDS011;3552;42.664;23.406;2022-08-19T13:37:20;9.87;;;5.27;;
7021;SDS011;3552;42.664;23.406;2022-08-19T13:40:06;8.30;;;5.00;;
7021;SDS011;3552;42.664;23.406;2022-08-19T13:42:39;9.70;;;5.20;;
7021;SDS011;3552;42.664;23.406;2022-08-19T13:45:07;5.43;;;4.80;;
7021;SDS011;3552;42.664;23.406;2022-08-19T13:47:37;9.37;;;6.07;;
7021;SDS011;3552;42.664;23.406;2022-08-19T13:50:09;8.03;;;5.77;;
7021;SDS011;3552;42.664;23.406;2022-08-19T13:52:37;6.07;;;5.47;;
7021;SDS011;3552;42.664;23.406;2022-08-19T13:55:08;10.60;;;5.07;;
7021;SDS011;3552;42.664;23.406;2022-08-19T13:57:36;11.80;;;5.50;;
7021;SDS011;3552;42.664;23.406;2022-08-19T14:00:06;12.53;;;5.73;;
7021;SDS011;3552;42.664;23.406;2022-08-19T14:02:34;7.93;;;5.13;;
7021;SDS011;3552;42.664;23.406;2022-08-19T14:05:04;6.10;;;5.00;;
7021;SDS011;3552;42.664;23.406;2022-08-19T14:07:33;13.33;;;6.00;;
7021;SDS011;3552;42.664;23.406;2022-08-19T14:10:02;6.70;;;5.37;;
7021;SDS011;3552;42.664;23.406;2022-08-19T14:12:31;14.30;;;5.50;;
7021;SDS011;3552;42.664;23.406;2022-08-19T14:14:58;6.70;;;5.20;;
7021;SDS011;3552;42.664;23.406;2022-08-19T14:17:25;7.97;;;5.10;;
7021;SDS011;3552;42.664;23.406;2022-08-19T14:19:57;9.50;;;5.23;;
7021;SDS011;3552;42.664;23.406;2022-08-19T14:22:32;6.67;;;5.27;;
7021;SDS011;3552;42.664;23.406;2022-08-19T14:24:59;10.53;;;5.27;;
7021;SDS011;3552;42.664;23.406;2022-08-19T14:27:26;6.87;;;5.13;;
7021;SDS011;3552;42.664;23.406;2022-08-19T14:29:53;7.90;;;5.20;;
7021;SDS011;3552;42.664;23.406;2022-08-19T14:32:21;7.73;;;5.17;;
7021;SDS011;3552;42.664;23.406;2022-08-19T14:34:48;9.53;;;5.13;;
7021;SDS011;3552;42.664;23.406;2022-08-19T14:37:18;8.73;;;5.63;;
7021;SDS011;3552;42.664;23.406;2022-08-19T14:39:45;10.73;;;5.40;;
7021;SDS011;3552;42.664;23.406;2022-08-19T14:42:14;8.80;;;5.23;;
7021;SDS011;3552;42.664;23.406;2022-08-19T14:44:41;8.70;;;5.13;;
7021;SDS011;3552;42.664;23.406;2022-08-19T14:47:10;6.27;;;5.40;;
7021;SDS011;3552;42.664;23.406;2022-08-19T14:49:38;8.10;;;5.30;;
7021;SDS011;3552;42.664;23.406;2022-08-19T14:52:05;9.27;;;6.00;;
7021;SDS011;3552;42.664;23.406;2022-08-19T14:54:34;8.83;;;5.40;;
7021;SDS011;3552;42.664;23.406;2022-08-19T14:57:01;9.73;;;5.07;;
7021;SDS011;3552;42.664;23.406;2022-08-19T14:59:29;12.47;;;5.30;;
7021;SDS011;3552;42.664;23.406;2022-08-19T15:01:56;5.90;;;5.30;;
7021;SDS011;3552;42.664;23.406;2022-08-19T15:04:24;9.77;;;5.50;;
7021;SDS011;3552;42.664;23.406;2022-08-19T15:06:51;12.37;;;5.37;;
7021;SDS011;3552;42.664;23.406;2022-08-19T15:09:18;6.13;;;5.23;;
7021;SDS011;3552;42.664;23.406;2022-08-19T15:11:48;10.07;;;5.23;;